Time;durP1;ratioP1;P1;durP2;ratioP2;P2;SDS_P1;SDS_P2;PMS_P1;PMS_P2;Temp;Humidity;BMP_temperature;BMP_pressure;BME280_temperature;BME280_humidity;BME280_pressure;Samples;Min_cycle;Max_cycle;Signal;HPM_P1;HPM_P2
2023/04/09 00:05:00;;;;;;;57.93;34.80;;;6.30;99.90;;;;;;2607282;54;20439;-77
2023/04/09 00:10:49;;;;;;;61.97;38.40;;;6.30;99.90;;;;;;2608001;54;20419;-77
2023/04/09 00:16:37;;;;;;;53.60;33.27;;;6.20;99.90;;;;;;2607826;54;20395;-77
2023/04/09 00:22:24;;;;;;;58.60;33.60;;;6.10;99.90;;;;;;2611067;54;20927;-77
2023/04/09 00:28:13;;;;;;;60.87;34.97;;;6.10;99.90;;;;;;2609652;54;20463;-78
2023/04/09 00:34:01;;;;;;;56.67;36.57;;;5.90;99.90;;;;;;2608119;54;20912;-78
2023/04/09 00:39:49;;;;;;;50.27;33.40;;;5.70;99.90;;;;;;2608574;54;20610;-77
2023/04/09 00:45:37;;;;;;;51.63;34.83;;;5.40;99.90;;;;;;2608154;54;20394;-77
2023/04/09 00:51:25;;;;;;;50.03;32.57;;;5.50;99.90;;;;;;2607547;54;20251;-77
2023/04/09 00:54:41;;;;;;;53.07;35.43;;;5.50;99.90;;;;;;2608003;54;20438;-76
2023/04/09 00:57:06;;;;;;;57.77;34.27;;;5.50;99.90;;;;;;2608232;54;20380;-77
2023/04/09 01:02:58;;;;;;;58.47;35.37;;;5.60;99.90;;;;;;2606457;54;20138;-71
2023/04/09 01:15:30;;;;;;;55.80;33.77;;;5.00;99.90;;;;;;2607504;54;20476;-70
2023/04/09 01:21:21;;;;;;;60.53;36.80;;;4.80;99.90;;;;;;2607593;54;20391;-71
2023/04/09 01:27:10;;;;;;;60.43;34.57;;;4.70;99.90;;;;;;2607569;54;20399;-71
2023/04/09 01:32:59;;;;;;;50.70;34.73;;;4.60;99.90;;;;;;2606688;54;20375;-70
2023/04/09 01:38:49;;;;;;;58.30;34.90;;;4.60;99.90;;;;;;2606728;54;20973;-70
2023/04/09 01:44:39;;;;;;;56.67;36.03;;;4.70;99.90;;;;;;2608995;39;20707;-71
2023/04/09 01:50:27;;;;;;;50.90;36.07;;;4.60;99.90;;;;;;2607522;54;20355;-70
2023/04/09 01:59:39;;;;;;;62.93;37.77;;;4.30;99.90;;;;;;2607983;54;20419;-70
2023/04/09 02:11:42;;;;;;;57.13;36.30;;;4.10;99.90;;;;;;2608568;54;20413;-71
2023/04/09 02:17:29;;;;;;;56.20;35.30;;;3.90;99.90;;;;;;2607679;54;20423;-70
2023/04/09 02:23:17;;;;;;;53.17;34.40;;;3.80;99.90;;;;;;2609101;54;20182;-71
2023/04/09 02:29:05;;;;;;;56.80;32.13;;;3.70;99.90;;;;;;2609475;54;20126;-71
2023/04/09 02:34:53;;;;;;;52.23;33.33;;;3.60;99.90;;;;;;2608639;54;20154;-71
2023/04/09 02:40:40;;;;;;;53.30;32.50;;;3.50;99.90;;;;;;2609145;54;20242;-70
2023/04/09 02:46:28;;;;;;;50.77;32.17;;;3.60;99.90;;;;;;2608326;54;20130;-71
2023/04/09 02:52:18;;;;;;;49.27;32.57;;;3.40;99.90;;;;;;2608258;54;20126;-71
2023/04/09 03:01:28;;;;;;;58.73;35.70;;;3.70;99.90;;;;;;2608523;54;20387;-72
2023/04/09 03:07:16;;;;;;;57.17;35.20;;;3.40;99.90;;;;;;2608684;54;20247;-72
2023/04/09 03:13:03;;;;;;;52.60;36.73;;;3.20;99.90;;;;;;2608382;54;20138;-72
2023/04/09 03:18:51;;;;;;;68.40;37.67;;;3.40;99.90;;;;;;2609957;54;20219;-72
2023/04/09 03:24:39;;;;;;;56.40;36.43;;;3.40;99.90;;;;;;2608169;54;20170;-72
2023/04/09 03:30:27;;;;;;;58.70;38.50;;;3.10;99.90;;;;;;2608566;54;20222;-71
2023/04/09 03:36:15;;;;;;;50.60;34.70;;;3.20;99.90;;;;;;2608704;39;20592;-71
2023/04/09 03:42:02;;;;;;;60.97;37.73;;;2.90;99.90;;;;;;2608517;54;20701;-72
2023/04/09 03:47:50;;;;;;;61.07;37.23;;;2.90;99.90;;;;;;2608676;54;20138;-71
2023/04/09 03:53:38;;;;;;;59.10;37.47;;;2.90;99.90;;;;;;2607870;54;20782;-70
2023/04/09 03:56:58;;;;;;;60.27;38.23;;;2.80;99.90;;;;;;2609236;54;20383;-70
2023/04/09 03:59:24;;;;;;;62.50;38.87;;;2.70;99.90;;;;;;2607598;54;20419;-71
2023/04/09 04:05:12;;;;;;;55.60;36.20;;;2.90;99.90;;;;;;2608186;54;20989;-71
2023/04/09 04:11:04;;;;;;;63.93;37.50;;;2.70;99.90;;;;;;2608944;39;20776;-71
2023/04/09 04:16:52;;;;;;;54.00;35.30;;;2.60;99.90;;;;;;2608080;39;20774;-71
2023/04/09 04:22:40;;;;;;;68.30;38.87;;;2.70;99.90;;;;;;2608188;54;20126;-71
2023/04/09 04:28:27;;;;;;;64.67;39.83;;;2.70;99.90;;;;;;2608266;54;20174;-71
2023/04/09 04:34:15;;;;;;;57.27;36.50;;;2.50;99.90;;;;;;2608612;54;20238;-71
2023/04/09 04:40:04;;;;;;;65.97;38.13;;;2.40;99.90;;;;;;2608281;54;20668;-71
2023/04/09 04:45:51;;;;;;;62.13;36.93;;;2.40;99.90;;;;;;2611359;31;20822;-71
2023/04/09 04:51:39;;;;;;;60.53;38.23;;;2.30;99.90;;;;;;2610968;54;20255;-72
2023/04/09 05:01:29;;;;;;;64.50;40.03;;;2.20;99.90;;;;;;2612033;54;20390;-71
2023/04/09 05:07:17;;;;;;;60.87;37.53;;;2.30;99.90;;;;;;2612146;39;20798;-71
2023/04/09 05:13:04;;;;;;;60.60;36.87;;;2.30;99.90;;;;;;2612120;54;20151;-72
2023/04/09 05:18:52;;;;;;;45.37;34.60;;;2.40;99.90;;;;;;2612629;54;20200;-71
2023/04/09 05:24:40;;;;;;;54.07;37.83;;;2.60;99.90;;;;;;2613200;54;20748;-70
2023/04/09 05:30:28;;;;;;;51.50;36.80;;;2.80;99.90;;;;;;2613290;39;20632;-72
2023/04/09 05:36:17;;;;;;;51.40;34.17;;;3.20;99.90;;;;;;2610601;54;20138;-71
2023/04/09 05:42:05;;;;;;;52.33;34.47;;;3.70;99.90;;;;;;2613510;46;20405;-71
2023/04/09 05:47:53;;;;;;;50.97;36.23;;;4.40;99.90;;;;;;2614045;54;20134;-71
2023/04/09 05:53:41;;;;;;;41.07;31.70;;;4.90;99.90;;;;;;2611897;54;20198;-71
2023/04/09 05:56:59;;;;;;;47.77;34.80;;;5.20;99.90;;;;;;2611812;54;20443;-71
2023/04/09 05:59:24;;;;;;;43.57;32.50;;;5.30;99.90;;;;;;2611412;54;20929;-71
2023/04/09 06:05:12;;;;;;;41.10;30.97;;;5.70;99.90;;;;;;2609113;54;20143;-72
2023/04/09 06:11:02;;;;;;;36.80;31.50;;;6.10;99.90;;;;;;2609409;54;20158;-72
2023/04/09 06:16:50;;;;;;;39.57;30.40;;;6.50;99.90;;;;;;2611279;39;21017;-71
2023/04/09 06:22:37;;;;;;;39.73;32.50;;;6.70;99.90;;;;;;2608382;54;20815;-71
2023/04/09 06:28:27;;;;;;;33.60;29.57;;;7.30;99.90;;;;;;2609028;54;20699;-71
2023/04/09 06:34:15;;;;;;;33.27;27.60;;;7.60;99.90;;;;;;2606246;54;20363;-71
2023/04/09 06:40:03;;;;;;;32.50;27.70;;;7.90;99.90;;;;;;2606820;54;20154;-71
2023/04/09 06:45:50;;;;;;;32.47;29.20;;;8.30;99.90;;;;;;2607603;54;20214;-71
2023/04/09 06:51:38;;;;;;;29.83;26.83;;;8.90;99.90;;;;;;2605496;39;20534;-72
2023/04/09 07:01:25;;;;;;;28.57;25.57;;;9.50;99.90;;;;;;2609388;54;20362;-71
2023/04/09 07:07:13;;;;;;;27.50;24.60;;;9.80;99.90;;;;;;2606693;54;20418;-72
2023/04/09 07:13:01;;;;;;;26.33;23.90;;;10.10;99.90;;;;;;2607856;54;20155;-70
2023/04/09 07:18:49;;;;;;;27.73;25.20;;;10.30;99.90;;;;;;2608583;54;20154;-71
2023/04/09 07:24:37;;;;;;;25.07;22.73;;;11.20;95.70;;;;;;2609658;54;20387;-71
2023/04/09 07:30:25;;;;;;;26.67;24.17;;;11.50;89.10;;;;;;2609780;54;20174;-70
2023/04/09 07:36:12;;;;;;;25.20;23.10;;;12.00;79.60;;;;;;2608251;54;20251;-71
2023/04/09 07:42:04;;;;;;;25.17;23.07;;;12.20;64.70;;;;;;2607178;54;20215;-71
2023/04/09 07:47:52;;;;;;;24.03;22.13;;;12.40;67.40;;;;;;2607281;54;20399;-71
2023/04/09 07:53:39;;;;;;;25.90;23.70;;;12.40;58.10;;;;;;2608114;54;20122;-71
2023/04/09 07:56:58;;;;;;;25.03;22.90;;;12.70;58.80;;;;;;2608765;54;20503;-71
2023/04/09 07:59:26;;;;;;;25.77;23.60;;;13.20;56.30;;;;;;2606758;54;20146;-72
2023/04/09 08:05:13;;;;;;;23.03;21.20;;;13.40;49.90;;;;;;2607961;54;20436;-71
2023/04/09 08:11:01;;;;;;;21.97;20.27;;;13.30;41.20;;;;;;2608094;54;20688;-71
2023/04/09 08:16:50;;;;;;;21.07;19.07;;;13.10;30.10;;;;;;2608780;54;20214;-71
2023/04/09 08:22:37;;;;;;;21.50;19.37;;;14.40;21.20;;;;;;2607441;54;20403;-71
2023/04/09 08:28:25;;;;;;;22.77;21.03;;;14.10;9.70;;;;;;2610484;54;20175;-71
2023/04/09 08:34:14;;;;;;;20.37;18.87;;;14.20;11.50;;;;;;2612541;54;20150;-69
2023/04/09 08:40:02;;;;;;;19.67;18.03;;;14.40;3.10;;;;;;2612692;54;20476;-71
2023/04/09 08:45:50;;;;;;;20.53;18.97;;;14.60;8.70;;;;;;2612473;54;20125;-71
2023/04/09 08:48:53;;;;;;;20.40;18.90;;;14.20;2.40;;;;;;2612166;54;20419;-70
2023/04/09 08:51:21;;;;;;;19.60;18.10;;;14.30;5.00;;;;;;2608652;54;20266;-71
2023/04/09 09:01:30;;;;;;;20.40;18.90;;;15.50;1.00;;;;;;2614153;39;20750;-70
2023/04/09 09:07:18;;;;;;;20.43;18.93;;;15.80;1.00;;;;;;2607426;54;20383;-71
2023/04/09 09:19:45;;;;;;;17.70;16.60;;;15.50;1.00;;;;;;2611074;54;20403;-71
2023/04/09 09:25:40;;;;;;;17.87;16.67;;;15.40;1.00;;;;;;2611061;54;20500;-71
2023/04/09 09:31:27;;;;;;;17.70;16.40;;;14.90;1.00;;;;;;2612529;54;20418;-69
2023/04/09 09:37:27;;;;;;;16.23;15.23;;;16.30;1.00;;;;;;2609790;54;20680;-70
2023/04/09 09:43:15;;;;;;;17.50;16.20;;;15.10;1.00;;;;;;2608851;54;20429;-70
2023/04/09 09:49:02;;;;;;;16.77;15.57;;;14.50;1.00;;;;;;2607136;39;20800;-70
2023/04/09 09:54:52;;;;;;;18.33;17.00;;;15.10;1.00;;;;;;2608371;54;20150;-70
2023/04/09 10:04:05;;;;;;;18.93;17.50;;;16.40;1.00;;;;;;2607500;54;20423;-70
2023/04/09 10:09:55;;;;;;;18.23;16.97;;;15.50;1.00;;;;;;2607585;54;20431;-71
2023/04/09 10:15:44;;;;;;;17.87;16.03;;;16.60;1.00;;;;;;2608349;54;20407;-71
2023/04/09 10:21:37;;;;;;;16.53;15.40;;;17.20;1.00;;;;;;2608320;39;20782;-72
2023/04/09 10:27:26;;;;;;;17.40;16.23;;;17.00;1.00;;;;;;2607298;39;20797;-70
2023/04/09 10:39:31;;;;;;;16.80;15.70;;;16.30;1.00;;;;;;2605478;54;20921;-70
2023/04/09 10:45:19;;;;;;;15.80;14.80;;;16.20;1.00;;;;;;2607393;54;20916;-70
2023/04/09 10:57:43;;;;;;;16.90;15.80;;;18.40;1.00;;;;;;2609595;54;20388;-72
2023/04/09 11:09:47;;;;;;;16.67;15.67;;;16.80;1.00;;;;;;2608668;54;20375;-71
2023/04/09 11:15:38;;;;;;;16.90;15.80;;;17.40;1.00;;;;;;2609243;54;20153;-71
2023/04/09 11:21:27;;;;;;;17.90;16.60;;;17.90;1.00;;;;;;2609186;54;20367;-71
2023/04/09 11:27:18;;;;;;;16.67;15.57;;;17.50;1.00;;;;;;2609082;54;20395;-70
2023/04/09 11:33:07;;;;;;;16.17;15.13;;;16.20;1.00;;;;;;2609566;54;20395;-70
2023/04/09 11:38:55;;;;;;;16.53;15.43;;;16.10;1.00;;;;;;2611691;54;20419;-70
2023/04/09 11:44:45;;;;;;;16.00;15.10;;;17.40;1.00;;;;;;2609240;54;21093;-71
2023/04/09 11:50:33;;;;;;;15.73;14.83;;;18.00;1.00;;;;;;2612029;54;20492;-71
2023/04/09 11:56:21;;;;;;;17.27;16.07;;;16.40;1.00;;;;;;2609079;54;20490;-70
2023/04/09 11:59:26;;;;;;;17.17;15.97;;;16.40;1.00;;;;;;2608235;54;20411;-71
2023/04/09 12:01:52;;;;;;;17.30;16.10;;;16.10;1.00;;;;;;2608799;47;20748;-70
2023/04/09 12:07:40;;;;;;;18.13;16.47;;;16.50;1.00;;;;;;2610345;54;20177;-69
2023/04/09 12:20:12;;;;;;;17.30;16.20;;;16.60;1.00;;;;;;2604073;54;20408;-71
2023/04/09 12:26:00;;;;;;;19.50;18.00;;;17.30;1.00;;;;;;2604760;54;20878;-70
2023/04/09 12:31:47;;;;;;;17.27;16.20;;;18.00;1.00;;;;;;2608415;54;20914;-70
2023/04/09 12:37:34;;;;;;;18.00;16.87;;;17.40;1.00;;;;;;2608630;39;20758;-70
2023/04/09 12:43:21;;;;;;;17.80;16.60;;;18.10;1.00;;;;;;2608800;54;20135;-69
2023/04/09 12:49:09;;;;;;;16.93;15.93;;;17.90;1.00;;;;;;2608143;54;20140;-70
2023/04/09 12:54:56;;;;;;;18.03;16.73;;;17.50;1.00;;;;;;2607627;54;20154;-69
2023/04/09 13:04:05;;;;;;;18.17;17.07;;;17.40;1.00;;;;;;2607499;39;20763;-69
2023/04/09 13:09:54;;;;;;;16.83;15.80;;;17.30;1.00;;;;;;2607493;54;20146;-70
2023/04/09 13:15:42;;;;;;;18.63;17.37;;;17.50;1.00;;;;;;2605175;54;20996;-70
2023/04/09 13:21:30;;;;;;;19.70;18.40;;;18.00;1.00;;;;;;2609280;54;20942;-70
2023/04/09 13:27:18;;;;;;;18.57;17.37;;;18.20;1.00;;;;;;2608965;54;20363;-69
2023/04/09 13:33:05;;;;;;;17.30;16.20;;;18.60;1.00;;;;;;2608511;46;20150;-69
2023/04/09 13:38:54;;;;;;;17.90;16.80;;;18.70;1.00;;;;;;2608773;54;20126;-70
2023/04/09 13:44:44;;;;;;;16.53;15.63;;;18.30;1.00;;;;;;2609445;54;20771;-70
2023/04/09 13:50:32;;;;;;;17.03;15.87;;;17.40;1.00;;;;;;2606332;54;20423;-71
2023/04/09 13:56:20;;;;;;;17.77;16.57;;;17.30;1.00;;;;;;2613155;54;20440;-70
2023/04/09 13:59:29;;;;;;;20.10;18.70;;;17.80;1.00;;;;;;2613397;54;20376;-71
2023/04/09 14:01:55;;;;;;;16.13;15.13;;;19.30;1.00;;;;;;2612556;54;20147;-70
2023/04/09 14:07:43;;;;;;;17.97;16.77;;;18.10;1.00;;;;;;2610360;54;20203;-70
2023/04/09 14:13:30;;;;;;;17.77;16.47;;;19.20;1.00;;;;;;2612820;54;20138;-69
2023/04/09 14:19:18;;;;;;;16.77;15.70;;;18.40;1.00;;;;;;2612075;54;20141;-70
2023/04/09 14:25:06;;;;;;;17.93;16.60;;;16.80;1.00;;;;;;2608694;54;20126;-69
2023/04/09 14:30:54;;;;;;;17.30;16.30;;;17.80;1.00;;;;;;2613313;54;20408;-70
2023/04/09 14:36:42;;;;;;;15.73;14.83;;;18.70;1.00;;;;;;2612367;39;20770;-70
2023/04/09 14:39:45;;;;;;;16.80;15.70;;;18.70;1.00;;;;;;2610785;54;20392;-72
2023/04/09 14:42:11;;;;;;;16.70;15.20;;;18.40;1.00;;;;;;2611813;54;20162;-70
2023/04/09 14:47:59;;;;;;;16.20;15.23;;;17.50;1.00;;;;;;2611442;54;20383;-70
2023/04/09 14:53:47;;;;;;;17.53;16.13;;;16.50;1.00;;;;;;2611990;54;20115;-70
2023/04/09 15:06:01;;;;;;;16.00;15.00;;;17.60;1.00;;;;;;2611458;54;20475;-70
2023/04/09 15:11:48;;;;;;;16.40;15.40;;;17.00;1.00;;;;;;2612563;54;20202;-70
2023/04/09 15:17:36;;;;;;;16.07;15.17;;;17.30;1.00;;;;;;2611926;54;20114;-70
2023/04/09 15:23:24;;;;;;;15.97;14.77;;;16.60;1.00;;;;;;2612628;54;20854;-69
2023/04/09 15:29:11;;;;;;;15.53;14.53;;;16.90;1.00;;;;;;2612593;54;20243;-71
2023/04/09 15:34:59;;;;;;;16.80;15.77;;;16.90;1.00;;;;;;2612960;54;20138;-70
2023/04/09 15:40:47;;;;;;;16.37;15.43;;;17.50;1.00;;;;;;2613558;54;20395;-70
2023/04/09 15:46:36;;;;;;;17.53;16.43;;;16.50;1.00;;;;;;2613580;39;20529;-70
2023/04/09 15:52:25;;;;;;;17.43;16.17;;;16.10;1.00;;;;;;2611804;54;20426;-70
2023/04/09 15:58:12;;;;;;;16.83;15.77;;;16.00;1.00;;;;;;2610920;54;20395;-70
2023/04/09 16:07:23;;;;;;;17.70;16.67;;;16.80;1.00;;;;;;2610703;54;20402;-70
2023/04/09 16:13:10;;;;;;;16.50;15.60;;;15.80;1.00;;;;;;2611370;54;20141;-69
2023/04/09 16:18:59;;;;;;;18.30;17.20;;;17.00;1.00;;;;;;2611467;54;20147;-70
2023/04/09 16:24:47;;;;;;;15.37;14.47;;;16.70;1.00;;;;;;2611363;54;20411;-71
2023/04/09 16:30:35;;;;;;;16.27;15.23;;;15.90;1.00;;;;;;2611253;54;20150;-70
2023/04/09 16:36:23;;;;;;;16.17;15.30;;;16.70;1.00;;;;;;2611353;54;20130;-70
2023/04/09 16:42:11;;;;;;;16.67;15.77;;;16.30;1.00;;;;;;2612581;54;20151;-69
2023/04/09 16:47:59;;;;;;;16.93;15.80;;;15.40;1.00;;;;;;2612160;54;20184;-70
2023/04/09 16:53:47;;;;;;;17.17;16.23;;;15.40;1.00;;;;;;2611186;39;20663;-70
2023/04/09 16:59:35;;;;;;;16.37;15.37;;;15.70;1.00;;;;;;2608911;39;20528;-69
2023/04/09 17:02:45;;;;;;;17.53;16.53;;;16.20;1.00;;;;;;2608097;54;20420;-79
2023/04/09 17:05:11;;;;;;;17.00;16.00;;;16.00;1.00;;;;;;2607030;54;20415;-74
2023/04/09 17:11:02;;;;;;;16.03;15.00;;;15.80;1.00;;;;;;2611565;54;20166;-74
2023/04/09 17:16:51;;;;;;;18.23;17.13;;;14.50;1.00;;;;;;2611303;54;20961;-73
2023/04/09 17:22:39;;;;;;;17.60;16.43;;;14.20;1.00;;;;;;2611751;54;20619;-73
2023/04/09 17:28:27;;;;;;;18.60;17.50;;;14.00;1.00;;;;;;2610785;54;20158;-73
2023/04/09 17:34:15;;;;;;;18.57;17.27;;;13.90;1.00;;;;;;2614384;54;20708;-73
2023/04/09 17:40:02;;;;;;;18.83;17.40;;;13.60;1.00;;;;;;2614784;54;20403;-74
2023/04/09 17:45:50;;;;;;;18.93;17.57;;;13.40;1.00;;;;;;2611760;54;20189;-73
2023/04/09 17:51:38;;;;;;;17.43;16.33;;;13.20;1.00;;;;;;2610928;54;20159;-74
2023/04/09 17:57:26;;;;;;;17.63;16.43;;;13.10;1.00;;;;;;2610655;39;20505;-75
2023/04/09 18:07:13;;;;;;;17.27;16.27;;;12.90;1.00;;;;;;2613174;54;20886;-75
2023/04/09 18:13:01;;;;;;;17.80;16.63;;;12.70;1.00;;;;;;2610047;54;20354;-75
2023/04/09 18:18:48;;;;;;;17.93;16.67;;;12.50;1.00;;;;;;2608628;54;20204;-76
2023/04/09 18:24:37;;;;;;;16.47;15.27;;;12.30;1.00;;;;;;2607318;54;20127;-75
2023/04/09 18:30:25;;;;;;;17.27;16.10;;;12.10;1.00;;;;;;2604810;54;20419;-76
2023/04/09 18:36:12;;;;;;;16.67;15.57;;;11.90;1.00;;;;;;2607312;54;20359;-75
2023/04/09 18:42:01;;;;;;;16.90;15.93;;;11.70;1.00;;;;;;2609414;54;20259;-75
2023/04/09 18:47:48;;;;;;;17.43;16.33;;;11.60;1.00;;;;;;2609019;54;21104;-75
2023/04/09 18:53:36;;;;;;;19.73;18.43;;;11.20;1.00;;;;;;2607108;54;20142;-77
2023/04/09 18:59:24;;;;;;;20.00;18.60;;;11.10;1.00;;;;;;2606676;54;20846;-76
2023/04/09 19:05:30;;;;;;;26.50;24.63;;;10.80;4.90;;;;;;2608337;39;20579;-76
2023/04/09 19:11:17;;;;;;;22.50;20.93;;;10.60;8.50;;;;;;2607729;54;20965;-76
2023/04/09 19:17:04;;;;;;;22.20;20.60;;;10.40;11.20;;;;;;2606954;54;20176;-76
2023/04/09 19:22:53;;;;;;;18.80;17.60;;;10.20;15.30;;;;;;2608425;54;20180;-75
2023/04/09 19:28:40;;;;;;;19.93;18.53;;;10.00;21.60;;;;;;2608703;54;20961;-77
2023/04/09 19:34:27;;;;;;;20.97;19.17;;;10.10;16.30;;;;;;2608259;54;20153;-76
2023/04/09 19:40:16;;;;;;;23.30;21.60;;;9.70;23.30;;;;;;2609589;54;20171;-76
2023/04/09 19:46:07;;;;;;;19.97;18.23;;;9.40;28.80;;;;;;2611092;54;20492;-76
2023/04/09 19:51:55;;;;;;;23.50;21.40;;;9.20;38.00;;;;;;2611228;54;20448;-76
2023/04/09 19:57:44;;;;;;;20.10;18.60;;;9.10;47.30;;;;;;2609823;54;20412;-76
2023/04/09 20:07:14;;;;;;;22.67;20.87;;;8.90;46.70;;;;;;2614383;54;20421;-76
2023/04/09 20:13:01;;;;;;;23.20;21.50;;;8.70;56.10;;;;;;2613515;54;20426;-76
2023/04/09 20:18:49;;;;;;;24.83;21.33;;;8.30;74.20;;;;;;2614136;54;20150;-75
2023/04/09 20:24:37;;;;;;;21.73;19.83;;;8.20;90.90;;;;;;2614273;54;20137;-76
2023/04/09 20:30:24;;;;;;;21.57;19.87;;;8.00;95.40;;;;;;2614070;54;20134;-75
2023/04/09 20:36:16;;;;;;;22.90;20.83;;;7.90;99.90;;;;;;2613578;54;20657;-75
2023/04/09 20:42:03;;;;;;;23.43;21.33;;;7.80;99.90;;;;;;2613790;54;20407;-76
2023/04/09 20:47:51;;;;;;;23.30;21.20;;;7.70;99.90;;;;;;2612918;54;20131;-76
2023/04/09 20:53:39;;;;;;;24.67;22.30;;;7.60;99.90;;;;;;2614217;54;20419;-75
2023/04/09 20:59:27;;;;;;;25.10;22.87;;;7.60;99.90;;;;;;2610305;54;20133;-74
2023/04/09 21:02:46;;;;;;;24.83;22.70;;;7.50;99.90;;;;;;2611745;39;20797;-75
2023/04/09 21:05:11;;;;;;;24.37;22.27;;;7.60;99.90;;;;;;2609133;47;20193;-75
2023/04/09 21:10:59;;;;;;;24.87;22.40;;;7.40;99.90;;;;;;2608365;46;20149;-75
2023/04/09 21:16:47;;;;;;;27.40;24.70;;;7.30;99.90;;;;;;2609746;54;20883;-76
2023/04/09 21:22:35;;;;;;;25.60;23.30;;;7.20;99.90;;;;;;2608942;54;20147;-75
2023/04/09 21:28:23;;;;;;;27.70;25.20;;;7.40;99.90;;;;;;2609705;54;20142;-75
2023/04/09 21:34:10;;;;;;;25.80;23.60;;;7.40;99.90;;;;;;2610414;54;20399;-77
2023/04/09 21:39:58;;;;;;;26.57;24.13;;;7.20;99.90;;;;;;2609642;54;20224;-76
2023/04/09 21:45:47;;;;;;;26.57;24.07;;;7.10;99.90;;;;;;2609872;54;20691;-76
2023/04/09 21:51:35;;;;;;;26.70;23.90;;;6.80;99.90;;;;;;2608459;54;20399;-75
2023/04/09 21:57:23;;;;;;;26.37;23.90;;;6.60;99.90;;;;;;2608377;54;20129;-76
2023/04/09 22:07:19;;;;;;;27.70;24.70;;;6.60;99.90;;;;;;2611532;54;20362;-76
2023/04/09 22:13:07;;;;;;;28.13;25.43;;;6.40;99.90;;;;;;2612007;54;20427;-76
2023/04/09 22:18:55;;;;;;;24.80;22.47;;;6.50;99.90;;;;;;2614299;54;20224;-76
2023/04/09 22:24:43;;;;;;;25.57;23.13;;;6.80;99.90;;;;;;2614110;54;20129;-76
2023/04/09 22:30:31;;;;;;;26.00;23.63;;;6.90;99.90;;;;;;2612667;54;20411;-75
2023/04/09 22:36:18;;;;;;;23.37;20.87;;;6.80;99.90;;;;;;2612570;54;20183;-76
2023/04/09 22:42:06;;;;;;;25.40;22.90;;;6.70;99.90;;;;;;2612419;39;20683;-76
2023/04/09 22:47:53;;;;;;;25.97;23.17;;;6.50;99.90;;;;;;2613402;54;20126;-76
2023/04/09 22:53:41;;;;;;;26.13;21.73;;;6.30;99.90;;;;;;2613591;54;20481;-75
2023/04/09 22:59:29;;;;;;;23.43;20.93;;;6.20;99.90;;;;;;2614268;54;20269;-76
2023/04/09 23:02:46;;;;;;;24.77;22.37;;;6.20;99.90;;;;;;2612249;47;20415;-76
2023/04/09 23:05:12;;;;;;;22.37;20.10;;;6.20;99.90;;;;;;2613346;47;20163;-77
2023/04/09 23:11:04;;;;;;;21.87;19.87;;;6.20;99.90;;;;;;2612783;54;20185;-76
2023/04/09 23:16:51;;;;;;;21.77;19.70;;;6.10;99.90;;;;;;2612510;54;20510;-74
2023/04/09 23:22:40;;;;;;;22.53;20.30;;;6.10;99.90;;;;;;2612500;54;20145;-76
2023/04/09 23:28:29;;;;;;;22.57;20.37;;;6.00;99.90;;;;;;2611919;54;20447;-76
2023/04/09 23:34:17;;;;;;;21.73;19.73;;;6.00;99.90;;;;;;2613570;54;21022;-76
2023/04/09 23:40:06;;;;;;;23.53;21.13;;;5.90;99.90;;;;;;2613584;39;20535;-74
2023/04/09 23:45:53;;;;;;;22.53;20.13;;;5.90;99.90;;;;;;2612323;54;20366;-76
2023/04/09 23:51:41;;;;;;;23.43;21.00;;;5.90;99.90;;;;;;2612376;54;20162;-76
2023/04/09 23:57:29;;;;;;;21.37;19.47;;;5.70;99.90;;;;;;2613930;54;20122;-76
